sensor_id;sensor_type;location;lat;lon;timestamp;pressure;altitude;pressure_sealevel;temperature;humidity
44297;BME280;51842;47.450;8.654;2024-01-25T00:00:05;96808.00;;;8.54;100.00
44297;BME280;51842;47.450;8.654;2024-01-25T00:02:31;96804.47;;;8.60;100.00
44297;BME280;51842;47.450;8.654;2024-01-25T00:04:56;96800.66;;;8.56;100.00
44297;BME280;51842;47.450;8.654;2024-01-25T00:07:22;96808.59;;;8.56;100.00
44297;BME280;51842;47.450;8.654;2024-01-25T00:09:48;96794.97;;;8.52;100.00
44297;BME280;51842;47.450;8.654;2024-01-25T00:12:14;96789.78;;;8.57;100.00
44297;BME280;51842;47.450;8.654;2024-01-25T00:14:40;96791.41;;;8.58;100.00
44297;BME280;51842;47.450;8.654;2024-01-25T00:17:06;96797.75;;;8.57;100.00
44297;BME280;51842;47.450;8.654;2024-01-25T00:19:34;96790.59;;;8.58;100.00
44297;BME280;51842;47.450;8.654;2024-01-25T00:22:00;96804.91;;;8.57;100.00
44297;BME280;51842;47.450;8.654;2024-01-25T00:24:26;96792.50;;;8.51;100.00
44297;BME280;51842;47.450;8.654;2024-01-25T00:26:52;96796.41;;;8.48;100.00
44297;BME280;51842;47.450;8.654;2024-01-25T00:29:18;96795.63;;;8.48;100.00
44297;BME280;51842;47.450;8.654;2024-01-25T00:31:44;96803.94;;;8.51;100.00
44297;BME280;51842;47.450;8.654;2024-01-25T00:34:10;96799.06;;;8.48;100.00
44297;BME280;51842;47.450;8.654;2024-01-25T00:36:36;96802.16;;;8.45;100.00
44297;BME280;51842;47.450;8.654;2024-01-25T00:39:02;96801.72;;;8.48;100.00
44297;BME280;51842;47.450;8.654;2024-01-25T00:41:34;96789.34;;;8.42;100.00
44297;BME280;51842;47.450;8.654;2024-01-25T00:44:01;96791.56;;;8.45;100.00
44297;BME280;51842;47.450;8.654;2024-01-25T00:46:27;96788.97;;;8.39;100.00
44297;BME280;51842;47.450;8.654;2024-01-25T00:48:54;96792.72;;;8.31;100.00
44297;BME280;51842;47.450;8.654;2024-01-25T00:51:22;96785.91;;;8.35;100.00
44297;BME280;51842;47.450;8.654;2024-01-25T00:53:49;96786.72;;;8.35;100.00
44297;BME280;51842;47.450;8.654;2024-01-25T00:56:15;96792.63;;;8.38;100.00
44297;BME280;51842;47.450;8.654;2024-01-25T00:58:42;96784.25;;;8.41;100.00
44297;BME280;51842;47.450;8.654;2024-01-25T01:01:08;96789.19;;;8.37;100.00
44297;BME280;51842;47.450;8.654;2024-01-25T01:03:36;96788.16;;;8.38;100.00
44297;BME280;51842;47.450;8.654;2024-01-25T01:06:03;96788.22;;;8.31;100.00
44297;BME280;51842;47.450;8.654;2024-01-25T01:08:29;96786.44;;;8.25;100.00
44297;BME280;51842;47.450;8.654;2024-01-25T01:10:55;96788.84;;;8.27;100.00
44297;BME280;51842;47.450;8.654;2024-01-25T01:13:21;96789.47;;;8.29;100.00
44297;BME280;51842;47.450;8.654;2024-01-25T01:15:46;96787.59;;;8.29;100.00
44297;BME280;51842;47.450;8.654;2024-01-25T01:18:12;96788.28;;;8.25;100.00
44297;BME280;51842;47.450;8.654;2024-01-25T01:20:38;96787.25;;;8.26;100.00
44297;BME280;51842;47.450;8.654;2024-01-25T01:23:04;96790.94;;;8.25;100.00
44297;BME280;51842;47.450;8.654;2024-01-25T01:25:30;96787.69;;;8.23;100.00
44297;BME280;51842;47.450;8.654;2024-01-25T01:27:55;96788.50;;;8.23;100.00
44297;BME280;51842;47.450;8.654;2024-01-25T01:30:22;96787.25;;;8.26;100.00
44297;BME280;51842;47.450;8.654;2024-01-25T01:32:48;96785.84;;;8.23;100.00
44297;BME280;51842;47.450;8.654;2024-01-25T01:35:13;96788.28;;;8.25;100.00
44297;BME280;51842;47.450;8.654;2024-01-25T01:37:39;96801.13;;;8.28;100.00
44297;BME280;51842;47.450;8.654;2024-01-25T01:40:06;96797.84;;;8.26;100.00
44297;BME280;51842;47.450;8.654;2024-01-25T01:42:33;96795.19;;;8.26;100.00
44297;BME280;51842;47.450;8.654;2024-01-25T01:44:59;96788.84;;;8.27;100.00
44297;BME280;51842;47.450;8.654;2024-01-25T01:47:25;96781.13;;;8.25;100.00
44297;BME280;51842;47.450;8.654;2024-01-25T01:49:51;96787.50;;;8.18;100.00
44297;BME280;51842;47.450;8.654;2024-01-25T01:52:18;96784.88;;;8.18;100.00
44297;BME280;51842;47.450;8.654;2024-01-25T01:54:47;96777.72;;;8.18;100.00
44297;BME280;51842;47.450;8.654;2024-01-25T01:57:15;96774.25;;;8.18;100.00
44297;BME280;51842;47.450;8.654;2024-01-25T01:59:41;96760.97;;;8.18;100.00
44297;BME280;51842;47.450;8.654;2024-01-25T02:02:07;96756.94;;;8.15;100.00
44297;BME280;51842;47.450;8.654;2024-01-25T02:04:33;96754.50;;;8.14;100.00
44297;BME280;51842;47.450;8.654;2024-01-25T02:06:59;96756.09;;;8.15;100.00
44297;BME280;51842;47.450;8.654;2024-01-25T02:09:25;96753.25;;;8.16;100.00
44297;BME280;51842;47.450;8.654;2024-01-25T02:12:02;96748.31;;;8.20;100.00
44297;BME280;51842;47.450;8.654;2024-01-25T02:14:30;96759.53;;;8.22;100.00
44297;BME280;51842;47.450;8.654;2024-01-25T02:16:56;96756.06;;;8.21;100.00
44297;BME280;51842;47.450;8.654;2024-01-25T02:19:22;96758.13;;;8.19;100.00
44297;BME280;51842;47.450;8.654;2024-01-25T02:21:52;96750.59;;;8.16;100.00
44297;BME280;51842;47.450;8.654;2024-01-25T02:24:19;96748.31;;;8.20;100.00
44297;BME280;51842;47.450;8.654;2024-01-25T02:26:45;96746.69;;;8.19;100.00
44297;BME280;51842;47.450;8.654;2024-01-25T02:29:11;96740.72;;;8.23;100.00
44297;BME280;51842;47.450;8.654;2024-01-25T02:31:36;96749.47;;;8.24;100.00
44297;BME280;51842;47.450;8.654;2024-01-25T02:34:02;96746.00;;;8.23;100.00
44297;BME280;51842;47.450;8.654;2024-01-25T02:36:28;96746.69;;;8.19;100.00
44297;BME280;51842;47.450;8.654;2024-01-25T02:38:54;96749.09;;;8.20;100.00
44297;BME280;51842;47.450;8.654;2024-01-25T02:41:20;96738.28;;;8.22;100.00
44297;BME280;51842;47.450;8.654;2024-01-25T02:43:45;96728.47;;;8.22;100.00
44297;BME280;51842;47.450;8.654;2024-01-25T02:46:11;96726.44;;;8.24;100.00
44297;BME280;51842;47.450;8.654;2024-01-25T02:48:37;96727.00;;;8.26;100.00
44297;BME280;51842;47.450;8.654;2024-01-25T02:51:03;96733.34;;;8.25;100.00
44297;BME280;51842;47.450;8.654;2024-01-25T02:53:29;96733.34;;;8.25;100.00
44297;BME280;51842;47.450;8.654;2024-01-25T02:55:55;96724.34;;;8.26;100.00
44297;BME280;51842;47.450;8.654;2024-01-25T02:58:21;96731.50;;;8.26;100.00
44297;BME280;51842;47.450;8.654;2024-01-25T03:00:47;96722.28;;;8.28;100.00
44297;BME280;51842;47.450;8.654;2024-01-25T03:03:13;96718.59;;;8.29;100.00
44297;BME280;51842;47.450;8.654;2024-01-25T03:05:39;96722.28;;;8.28;100.00
44297;BME280;51842;47.450;8.654;2024-01-25T03:08:05;96718.81;;;8.28;100.00
44297;BME280;51842;47.450;8.654;2024-01-25T03:10:32;96721.25;;;8.29;100.00
44297;BME280;51842;47.450;8.654;2024-01-25T03:12:57;96722.28;;;8.28;100.00
44297;BME280;51842;47.450;8.654;2024-01-25T03:15:23;96716.16;;;8.28;100.00
44297;BME280;51842;47.450;8.654;2024-01-25T03:17:49;96709.81;;;8.29;100.00
44297;BME280;51842;47.450;8.654;2024-01-25T03:20:15;96710.41;;;8.31;100.00
44297;BME280;51842;47.450;8.654;2024-01-25T03:22:41;96704.06;;;8.32;100.00
44297;BME280;51842;47.450;8.654;2024-01-25T03:25:07;96717.09;;;8.33;100.00
44297;BME280;51842;47.450;8.654;2024-01-25T03:27:34;96720.59;;;8.34;100.00
44297;BME280;51842;47.450;8.654;2024-01-25T03:30:00;96711.59;;;8.35;100.00
44297;BME280;51842;47.450;8.654;2024-01-25T03:32:26;96715.84;;;8.36;100.00
44297;BME280;51842;47.450;8.654;2024-01-25T03:34:52;96721.97;;;8.37;100.00
44297;BME280;51842;47.450;8.654;2024-01-25T03:37:18;96719.53;;;8.35;100.00
44297;BME280;51842;47.450;8.654;2024-01-25T03:39:44;96723.59;;;8.38;100.00
44297;BME280;51842;47.450;8.654;2024-01-25T03:42:09;96711.97;;;8.39;100.00
44297;BME280;51842;47.450;8.654;2024-01-25T03:44:35;96708.28;;;8.40;100.00
44297;BME280;51842;47.450;8.654;2024-01-25T03:47:01;96711.16;;;8.38;100.00
44297;BME280;51842;47.450;8.654;2024-01-25T03:49:27;96714.41;;;8.40;100.00
44297;BME280;51842;47.450;8.654;2024-01-25T03:54:28;96713.59;;;8.40;100.00
44297;BME280;51842;47.450;8.654;2024-01-25T03:56:54;96716.03;;;8.41;100.00
44297;BME280;51842;47.450;8.654;2024-01-25T03:59:20;96715.00;;;8.42;100.00
44297;BME280;51842;47.450;8.654;2024-01-25T04:01:46;96714.78;;;8.44;100.00
44297;BME280;51842;47.450;8.654;2024-01-25T04:04:14;96713.59;;;8.40;100.00
44297;BME280;51842;47.450;8.654;2024-01-25T04:06:44;96714.41;;;8.40;100.00
44297;BME280;51842;47.450;8.654;2024-01-25T04:09:13;96717.28;;;8.39;100.00
44297;BME280;51842;47.450;8.654;2024-01-25T04:11:39;96722.81;;;8.37;100.00
44297;BME280;51842;47.450;8.654;2024-01-25T04:14:05;96734.03;;;8.39;100.00
44297;BME280;51842;47.450;8.654;2024-01-25T04:16:33;96726.88;;;8.40;100.00
44297;BME280;51842;47.450;8.654;2024-01-25T04:18:59;96725.66;;;8.35;100.00
44297;BME280;51842;47.450;8.654;2024-01-25T04:21:27;96716.09;;;8.34;100.00
44297;BME280;51842;47.450;8.654;2024-01-25T04:23:53;96719.72;;;8.40;100.00
44297;BME280;51842;47.450;8.654;2024-01-25T04:26:19;96713.59;;;8.40;100.00
44297;BME280;51842;47.450;8.654;2024-01-25T04:28:45;96710.78;;;8.34;100.00
44297;BME280;51842;47.450;8.654;2024-01-25T04:31:11;96711.97;;;8.39;100.00
44297;BME280;51842;47.450;8.654;2024-01-25T04:33:38;96713.13;;;8.43;100.00
44297;BME280;51842;47.450;8.654;2024-01-25T04:36:06;96719.72;;;8.40;100.00
44297;BME280;51842;47.450;8.654;2024-01-25T04:38:32;96719.72;;;8.40;100.00
44297;BME280;51842;47.450;8.654;2024-01-25T04:40:57;96724.22;;;8.40;100.00
44297;BME280;51842;47.450;8.654;2024-01-25T04:43:24;96726.66;;;8.41;100.00
44297;BME280;51842;47.450;8.654;2024-01-25T04:45:50;96723.75;;;8.43;100.00
44297;BME280;51842;47.450;8.654;2024-01-25T04:48:15;96719.28;;;8.43;100.00
44297;BME280;51842;47.450;8.654;2024-01-25T04:50:41;96724.34;;;8.45;100.00
44297;BME280;51842;47.450;8.654;2024-01-25T04:53:07;96722.50;;;8.45;100.00
44297;BME280;51842;47.450;8.654;2024-01-25T04:55:33;96721.94;;;8.43;100.00
44297;BME280;51842;47.450;8.654;2024-01-25T04:57:59;96722.31;;;8.47;100.00
44297;BME280;51842;47.450;8.654;2024-01-25T05:00:24;96724.72;;;8.48;100.00
44297;BME280;51842;47.450;8.654;2024-01-25T05:02:50;96733.94;;;8.46;100.00
44297;BME280;51842;47.450;8.654;2024-01-25T05:05:16;96722.88;;;8.49;100.00
44297;BME280;51842;47.450;8.654;2024-01-25T05:07:42;96731.06;;;8.47;100.00
44297;BME280;51842;47.450;8.654;2024-01-25T05:10:08;96731.44;;;8.51;100.00
44297;BME280;51842;47.450;8.654;2024-01-25T05:12:34;96740.00;;;8.53;100.00
44297;BME280;51842;47.450;8.654;2024-01-25T05:15:00;96742.66;;;8.53;100.00
44297;BME280;51842;47.450;8.654;2024-01-25T05:17:26;96742.88;;;8.51;100.00
44297;BME280;51842;47.450;8.654;2024-01-25T05:19:52;96736.53;;;8.52;100.00
44297;BME280;51842;47.450;8.654;2024-01-25T05:22:17;96741.84;;;8.52;100.00
44297;BME280;51842;47.450;8.654;2024-01-25T05:24:43;96746.94;;;8.54;100.00
44297;BME280;51842;47.450;8.654;2024-01-25T05:27:10;96755.50;;;8.56;100.00
44297;BME280;51842;47.450;8.654;2024-01-25T05:29:36;96757.09;;;8.57;100.00
44297;BME280;51842;47.450;8.654;2024-01-25T05:32:01;96750.19;;;8.56;100.00
44297;BME280;51842;47.450;8.654;2024-01-25T05:34:27;96756.50;;;8.55;100.00
44297;BME280;51842;47.450;8.654;2024-01-25T05:36:53;96762.41;;;8.57;100.00
44297;BME280;51842;47.450;8.654;2024-01-25T05:39:20;96757.91;;;8.57;100.00
44297;BME280;51842;47.450;8.654;2024-01-25T05:41:46;96757.56;;;8.54;100.00
44297;BME280;51842;47.450;8.654;2024-01-25T05:44:13;96756.31;;;8.56;100.00
44297;BME280;51842;47.450;8.654;2024-01-25T05:46:38;96755.06;;;8.59;100.00
44297;BME280;51842;47.450;8.654;2024-01-25T05:49:04;96755.25;;;8.57;100.00
44297;BME280;51842;47.450;8.654;2024-01-25T05:51:30;96769.56;;;8.56;100.00
44297;BME280;51842;47.450;8.654;2024-01-25T05:53:56;96767.72;;;8.57;100.00
44297;BME280;51842;47.450;8.654;2024-01-25T05:56:22;96773.84;;;8.57;100.00
44297;BME280;51842;47.450;8.654;2024-01-25T05:58:48;96768.53;;;8.57;100.00
44297;BME280;51842;47.450;8.654;2024-01-25T06:01:14;96772.59;;;8.60;100.00
44297;BME280;51842;47.450;8.654;2024-01-25T06:03:40;96776.88;;;8.61;100.00
44297;BME280;51842;47.450;8.654;2024-01-25T06:06:06;96779.75;;;8.60;100.00
44297;BME280;51842;47.450;8.654;2024-01-25T06:08:34;96780.31;;;8.62;100.00
44297;BME280;51842;47.450;8.654;2024-01-25T06:11:00;96776.75;;;8.56;100.00
44297;BME280;51842;47.450;8.654;2024-01-25T06:13:26;96783.91;;;8.55;100.00
44297;BME280;51842;47.450;8.654;2024-01-25T06:15:52;96786.56;;;8.55;100.00
44297;BME280;51842;47.450;8.654;2024-01-25T06:18:18;96786.56;;;8.55;100.00
44297;BME280;51842;47.450;8.654;2024-01-25T06:20:43;96783.66;;;8.57;100.00
44297;BME280;51842;47.450;8.654;2024-01-25T06:23:10;96784.91;;;8.54;100.00
44297;BME280;51842;47.450;8.654;2024-01-25T06:25:35;96785.97;;;8.53;100.00
44297;BME280;51842;47.450;8.654;2024-01-25T06:28:02;96790.81;;;8.56;100.00
44297;BME280;51842;47.450;8.654;2024-01-25T06:30:29;96789.78;;;8.57;100.00
44297;BME280;51842;47.450;8.654;2024-01-25T06:32:55;96794.28;;;8.57;100.00
44297;BME280;51842;47.450;8.654;2024-01-25T06:35:21;96796.94;;;8.57;100.00
44297;BME280;51842;47.450;8.654;2024-01-25T06:37:47;96799.16;;;8.60;100.00
44297;BME280;51842;47.450;8.654;2024-01-25T06:40:13;96801.56;;;8.62;100.00
44297;BME280;51842;47.450;8.654;2024-01-25T06:42:39;96808.16;;;8.59;100.00
44297;BME280;51842;47.450;8.654;2024-01-25T06:45:05;96803.66;;;8.60;100.00
44297;BME280;51842;47.450;8.654;2024-01-25T06:47:31;96804.47;;;8.60;100.00
44297;BME280;51842;47.450;8.654;2024-01-25T06:49:57;96807.94;;;8.61;100.00
44297;BME280;51842;47.450;8.654;2024-01-25T06:52:23;96821.22;;;8.61;100.00
44297;BME280;51842;47.450;8.654;2024-01-25T06:54:48;96822.81;;;8.62;100.00
44297;BME280;51842;47.450;8.654;2024-01-25T06:57:14;96828.97;;;8.62;100.00
44297;BME280;51842;47.450;8.654;2024-01-25T06:59:40;96828.97;;;8.62;100.00
44297;BME280;51842;47.450;8.654;2024-01-25T07:02:06;96827.69;;;8.65;100.00
44297;BME280;51842;47.450;8.654;2024-01-25T07:04:32;96827.47;;;8.66;100.00
44297;BME280;51842;47.450;8.654;2024-01-25T07:06:58;96832.81;;;8.66;100.00
44297;BME280;51842;47.450;8.654;2024-01-25T07:09:25;96829.53;;;8.64;100.00
44297;BME280;51842;47.450;8.654;2024-01-25T07:11:51;96832.44;;;8.63;100.00
44297;BME280;51842;47.450;8.654;2024-01-25T07:14:17;96836.50;;;8.65;100.00
44297;BME280;51842;47.450;8.654;2024-01-25T07:16:43;96827.31;;;8.61;100.00
44297;BME280;51842;47.450;8.654;2024-01-25T07:19:09;96825.91;;;8.58;100.00
44297;BME280;51842;47.450;8.654;2024-01-25T07:21:35;96826.41;;;8.55;100.00
44297;BME280;51842;47.450;8.654;2024-01-25T07:24:03;96826.97;;;8.57;100.00
44297;BME280;51842;47.450;8.654;2024-01-25T07:26:30;96828.00;;;8.56;100.00
44297;BME280;51842;47.450;8.654;2024-01-25T07:28:56;96828.00;;;8.56;100.00
44297;BME280;51842;47.450;8.654;2024-01-25T07:31:28;96816.34;;;8.57;100.00
44297;BME280;51842;47.450;8.654;2024-01-25T07:33:55;96823.13;;;8.53;100.00
44297;BME280;51842;47.450;8.654;2024-01-25T07:36:21;96815.28;;;8.58;100.00
44297;BME280;51842;47.450;8.654;2024-01-25T07:38:47;96817.50;;;8.62;100.00
44297;BME280;51842;47.450;8.654;2024-01-25T07:41:15;96823.66;;;8.62;100.00
44297;BME280;51842;47.450;8.654;2024-01-25T07:43:41;96821.81;;;8.63;100.00
44297;BME280;51842;47.450;8.654;2024-01-25T07:46:09;96824.03;;;8.66;100.00
44297;BME280;51842;47.450;8.654;2024-01-25T07:48:36;96823.22;;;8.65;100.00
44297;BME280;51842;47.450;8.654;2024-01-25T07:51:02;96821.94;;;8.68;100.00
44297;BME280;51842;47.450;8.654;2024-01-25T07:53:28;96830.31;;;8.71;100.00
44297;BME280;51842;47.450;8.654;2024-01-25T07:55:54;96825.56;;;8.73;100.00
44297;BME280;51842;47.450;8.654;2024-01-25T07:58:20;96823.50;;;8.75;100.00
44297;BME280;51842;47.450;8.654;2024-01-25T08:00:46;96816.94;;;8.78;100.00
44297;BME280;51842;47.450;8.654;2024-01-25T08:03:12;96815.44;;;8.82;100.00
44297;BME280;51842;47.450;8.654;2024-01-25T08:05:37;96816.03;;;8.84;100.00
44297;BME280;51842;47.450;8.654;2024-01-25T08:08:04;96805.19;;;8.86;100.00
44297;BME280;51842;47.450;8.654;2024-01-25T08:10:29;96812.72;;;8.89;100.00
44297;BME280;51842;47.450;8.654;2024-01-25T08:12:55;96812.09;;;8.87;100.00
44297;BME280;51842;47.450;8.654;2024-01-25T08:15:21;96816.53;;;8.93;100.00
44297;BME280;51842;47.450;8.654;2024-01-25T08:17:47;96825.34;;;8.93;100.00
44297;BME280;51842;47.450;8.654;2024-01-25T08:20:13;96822.22;;;8.96;100.00
44297;BME280;51842;47.450;8.654;2024-01-25T08:22:40;96835.06;;;8.99;100.00
44297;BME280;51842;47.450;8.654;2024-01-25T08:25:07;96840.59;;;8.98;100.00
44297;BME280;51842;47.450;8.654;2024-01-25T08:27:33;96837.50;;;9.01;100.00
44297;BME280;51842;47.450;8.654;2024-01-25T08:29:59;96835.06;;;8.99;100.00
44297;BME280;51842;47.450;8.654;2024-01-25T08:32:25;96834.63;;;9.02;100.00
44297;BME280;51842;47.450;8.654;2024-01-25T08:34:51;96842.00;;;9.00;100.00
44297;BME280;51842;47.450;8.654;2024-01-25T08:37:17;96840.75;;;9.03;100.00
44297;BME280;51842;47.450;8.654;2024-01-25T08:39:42;96850.09;;;9.06;100.00
44297;BME280;51842;47.450;8.654;2024-01-25T08:42:11;96849.09;;;9.07;100.00
44297;BME280;51842;47.450;8.654;2024-01-25T08:44:39;96849.88;;;9.07;100.00
44297;BME280;51842;47.450;8.654;2024-01-25T08:47:05;96850.34;;;9.04;100.00
44297;BME280;51842;47.450;8.654;2024-01-25T08:49:31;96847.91;;;9.02;100.00
44297;BME280;51842;47.450;8.654;2024-01-25T08:51:57;96851.94;;;9.05;100.00
44297;BME280;51842;47.450;8.654;2024-01-25T08:54:23;96849.88;;;9.07;100.00
44297;BME280;51842;47.450;8.654;2024-01-25T08:56:48;96838.56;;;9.12;100.00
44297;BME280;51842;47.450;8.654;2024-01-25T08:59:14;96838.97;;;9.15;100.00
44297;BME280;51842;47.450;8.654;2024-01-25T09:01:40;96841.75;;;9.20;100.00
44297;BME280;51842;47.450;8.654;2024-01-25T09:04:06;96847.81;;;9.27;100.00
44297;BME280;51842;47.450;8.654;2024-01-25T09:06:33;96840.63;;;9.28;100.00
44297;BME280;51842;47.450;8.654;2024-01-25T09:08:59;96838.31;;;9.32;100.00
44297;BME280;51842;47.450;8.654;2024-01-25T09:11:24;96848.06;;;9.38;100.00
44297;BME280;51842;47.450;8.654;2024-01-25T09:13:50;96854.53;;;9.42;100.00
44297;BME280;51842;47.450;8.654;2024-01-25T09:16:16;96855.81;;;9.39;100.00
44297;BME280;51842;47.450;8.654;2024-01-25T09:18:42;96855.81;;;9.39;100.00
44297;BME280;51842;47.450;8.654;2024-01-25T09:21:08;96857.09;;;9.48;100.00
44297;BME280;51842;47.450;8.654;2024-01-25T09:23:34;96863.47;;;9.47;100.00
44297;BME280;51842;47.450;8.654;2024-01-25T09:26:00;96862.78;;;9.52;100.00
44297;BME280;51842;47.450;8.654;2024-01-25T09:28:26;96864.06;;;9.49;100.00
44297;BME280;51842;47.450;8.654;2024-01-25T09:30:51;96861.75;;;9.53;100.00
44297;BME280;51842;47.450;8.654;2024-01-25T09:33:17;96862.56;;;9.54;100.00
44297;BME280;51842;47.450;8.654;2024-01-25T09:35:44;96866.53;;;9.63;100.00
44297;BME280;51842;47.450;8.654;2024-01-25T09:38:13;96864.69;;;9.63;100.00
44297;BME280;51842;47.450;8.654;2024-01-25T09:40:39;96876.72;;;9.66;100.00
44297;BME280;51842;47.450;8.654;2024-01-25T09:43:05;96864.59;;;9.70;100.00
44297;BME280;51842;47.450;8.654;2024-01-25T09:45:31;96874.41;;;9.69;100.00
44297;BME280;51842;47.450;8.654;2024-01-25T09:47:57;96879.75;;;9.69;100.00
44297;BME280;51842;47.450;8.654;2024-01-25T09:50:23;96879.50;;;9.71;100.00
44297;BME280;51842;47.450;8.654;2024-01-25T09:52:59;96870.72;;;9.70;100.00
44297;BME280;51842;47.450;8.654;2024-01-25T09:55:27;96870.50;;;9.72;100.00
44297;BME280;51842;47.450;8.654;2024-01-25T09:57:56;96873.72;;;9.74;100.00
44297;BME280;51842;47.450;8.654;2024-01-25T10:00:23;96876.16;;;9.76;100.00
44297;BME280;51842;47.450;8.654;2024-01-25T10:02:50;96871.19;;;9.79;100.00
44297;BME280;51842;47.450;8.654;2024-01-25T10:05:19;96877.47;;;9.85;100.00
44297;BME280;51842;47.450;8.654;2024-01-25T10:07:46;96884.53;;;9.91;100.00
44297;BME280;51842;47.450;8.654;2024-01-25T10:10:14;96876.66;;;9.96;100.00
44297;BME280;51842;47.450;8.654;2024-01-25T10:12:42;96880.06;;;10.03;100.00
44297;BME280;51842;47.450;8.654;2024-01-25T10:15:10;96888.13;;;10.08;100.00
44297;BME280;51842;47.450;8.654;2024-01-25T10:17:36;96882.34;;;10.11;100.00
44297;BME280;51842;47.450;8.654;2024-01-25T10:20:05;96884.81;;;10.13;100.00
44297;BME280;51842;47.450;8.654;2024-01-25T10:22:37;96880.88;;;10.15;100.00
44297;BME280;51842;47.450;8.654;2024-01-25T10:25:05;96884.81;;;10.13;100.00
44297;BME280;51842;47.450;8.654;2024-01-25T10:27:31;96878.69;;;10.12;100.00
44297;BME280;51842;47.450;8.654;2024-01-25T10:29:57;96879.25;;;10.14;100.00
44297;BME280;51842;47.450;8.654;2024-01-25T10:32:23;96877.38;;;10.15;100.00
44297;BME280;51842;47.450;8.654;2024-01-25T10:34:51;96881.78;;;10.21;100.00
44297;BME280;51842;47.450;8.654;2024-01-25T10:37:20;96878.66;;;10.24;100.00
44297;BME280;51842;47.450;8.654;2024-01-25T10:39:47;96878.25;;;10.27;100.00
44297;BME280;51842;47.450;8.654;2024-01-25T10:42:13;96874.91;;;10.32;100.00
44297;BME280;51842;47.450;8.654;2024-01-25T10:44:40;96868.19;;;10.29;100.00
44297;BME280;51842;47.450;8.654;2024-01-25T10:47:06;96859.13;;;10.30;100.00
44297;BME280;51842;47.450;8.654;2024-01-25T10:49:34;96854.16;;;10.34;100.00
44297;BME280;51842;47.450;8.654;2024-01-25T10:52:03;96856.59;;;10.35;100.00
44297;BME280;51842;47.450;8.654;2024-01-25T10:54:29;96853.22;;;10.40;100.00
44297;BME280;51842;47.450;8.654;2024-01-25T10:56:58;96849.19;;;10.37;100.00
44297;BME280;51842;47.450;8.654;2024-01-25T10:59:25;96854.28;;;10.39;100.00
44297;BME280;51842;47.450;8.654;2024-01-25T11:01:54;96848.94;;;10.39;100.00
44297;BME280;51842;47.450;8.654;2024-01-25T11:04:21;96845.03;;;10.41;100.00
44297;BME280;51842;47.450;8.654;2024-01-25T11:06:47;96843.97;;;10.42;100.00
44297;BME280;51842;47.450;8.654;2024-01-25T11:09:20;96842.56;;;10.40;100.00
44297;BME280;51842;47.450;8.654;2024-01-25T11:11:50;96837.50;;;10.38;100.00
44297;BME280;51842;47.450;8.654;2024-01-25T11:14:19;96837.03;;;10.41;100.00
44297;BME280;51842;47.450;8.654;2024-01-25T11:16:45;96832.03;;;10.45;100.00
44297;BME280;51842;47.450;8.654;2024-01-25T11:19:22;96821.50;;;10.38;100.00
44297;BME280;51842;47.450;8.654;2024-01-25T11:21:51;96820.47;;;10.39;100.00
44297;BME280;51842;47.450;8.654;2024-01-25T11:24:23;96811.19;;;10.42;100.00
44297;BME280;51842;47.450;8.654;2024-01-25T11:26:50;96810.38;;;10.41;100.00
44297;BME280;51842;47.450;8.654;2024-01-25T11:29:19;96807.38;;;10.38;100.00
44297;BME280;51842;47.450;8.654;2024-01-25T11:31:48;96801.94;;;10.45;100.00
44297;BME280;51842;47.450;8.654;2024-01-25T11:34:16;96794.41;;;10.41;100.00
44297;BME280;51842;47.450;8.654;2024-01-25T11:36:45;96795.81;;;10.44;100.00
44297;BME280;51842;47.450;8.654;2024-01-25T11:39:13;96796.59;;;10.45;100.00
44297;BME280;51842;47.450;8.654;2024-01-25T11:41:45;96792.66;;;10.47;100.00
44297;BME280;51842;47.450;8.654;2024-01-25T11:44:13;96788.81;;;10.55;100.00
44297;BME280;51842;47.450;8.654;2024-01-25T11:46:39;96788.22;;;10.64;100.00
44297;BME280;51842;47.450;8.654;2024-01-25T11:49:05;96783.13;;;10.63;100.00
44297;BME280;51842;47.450;8.654;2024-01-25T11:51:34;96783.47;;;10.67;100.00
44297;BME280;51842;47.450;8.654;2024-01-25T11:54:00;96775.38;;;10.61;100.00
44297;BME280;51842;47.450;8.654;2024-01-25T11:56:38;96772.69;;;10.73;100.00
44297;BME280;51842;47.450;8.654;2024-01-25T11:59:07;96775.31;;;10.85;100.00
44297;BME280;51842;47.450;8.654;2024-01-25T12:01:34;96773.31;;;10.92;100.00
44297;BME280;51842;47.450;8.654;2024-01-25T12:04:00;96773.31;;;10.92;100.00
44297;BME280;51842;47.450;8.654;2024-01-25T12:06:27;96778.59;;;11.04;100.00
44297;BME280;51842;47.450;8.654;2024-01-25T12:08:53;96766.41;;;11.08;100.00
44297;BME280;51842;47.450;8.654;2024-01-25T12:11:19;96761.97;;;11.14;100.00
44297;BME280;51842;47.450;8.654;2024-01-25T12:13:47;96758.38;;;11.20;100.00
44297;BME280;51842;47.450;8.654;2024-01-25T12:16:13;96760.72;;;11.33;100.00
44297;BME280;51842;47.450;8.654;2024-01-25T12:18:43;96770.84;;;11.48;100.00
44297;BME280;51842;47.450;8.654;2024-01-25T12:21:09;96756.28;;;11.55;100.00
44297;BME280;51842;47.450;8.654;2024-01-25T12:23:39;96762.53;;;11.61;100.00
44297;BME280;51842;47.450;8.654;2024-01-25T12:26:08;96759.38;;;11.64;100.00
44297;BME280;51842;47.450;8.654;2024-01-25T12:28:37;96749.91;;;11.73;100.00
44297;BME280;51842;47.450;8.654;2024-01-25T12:31:05;96750.69;;;11.86;100.00
44297;BME280;51842;47.450;8.654;2024-01-25T12:33:34;96748.56;;;11.88;100.00
44297;BME280;51842;47.450;8.654;2024-01-25T12:36:02;96742.72;;;11.91;100.00
44297;BME280;51842;47.450;8.654;2024-01-25T12:38:28;96741.50;;;11.98;100.00
44297;BME280;51842;47.450;8.654;2024-01-25T12:40:56;96741.25;;;12.00;100.00
44297;BME280;51842;47.450;8.654;2024-01-25T12:43:23;96743.88;;;11.95;100.00
44297;BME280;51842;47.450;8.654;2024-01-25T12:45:49;96747.25;;;11.90;100.00
44297;BME280;51842;47.450;8.654;2024-01-25T12:48:15;96743.56;;;11.91;100.00
44297;BME280;51842;47.450;8.654;2024-01-25T12:50:42;96746.94;;;11.87;100.00
44297;BME280;51842;47.450;8.654;2024-01-25T12:53:11;96744.09;;;11.76;100.00
44297;BME280;51842;47.450;8.654;2024-01-25T12:55:38;96740.78;;;11.69;100.00